sensor_id;sensor_type;location;lat;lon;timestamp;temperature;humidity
7290;DHT22;63176;52.678;13.250;2023-05-17T00:00:54;8.30;1.00
7290;DHT22;63176;52.678;13.250;2023-05-17T00:03:19;8.30;1.00
7290;DHT22;63176;52.678;13.250;2023-05-17T00:05:45;8.50;1.00
7290;DHT22;63176;52.678;13.250;2023-05-17T00:08:11;8.30;1.00
7290;DHT22;63176;52.678;13.250;2023-05-17T00:10:37;8.40;1.00
7290;DHT22;63176;52.678;13.250;2023-05-17T00:13:02;8.50;1.00
7290;DHT22;63176;52.678;13.250;2023-05-17T00:15:28;8.30;1.00
7290;DHT22;63176;52.678;13.250;2023-05-17T00:17:54;8.40;1.00
7290;DHT22;63176;52.678;13.250;2023-05-17T00:20:20;8.50;1.00
7290;DHT22;63176;52.678;13.250;2023-05-17T00:22:46;8.60;1.00
7290;DHT22;63176;52.678;13.250;2023-05-17T00:25:11;8.70;1.00
7290;DHT22;63176;52.678;13.250;2023-05-17T00:27:37;8.50;1.00
7290;DHT22;63176;52.678;13.250;2023-05-17T00:30:03;8.50;1.00
7290;DHT22;63176;52.678;13.250;2023-05-17T00:32:29;8.50;1.00
7290;DHT22;63176;52.678;13.250;2023-05-17T00:34:54;8.50;1.00
7290;DHT22;63176;52.678;13.250;2023-05-17T00:37:20;8.40;1.00
7290;DHT22;63176;52.678;13.250;2023-05-17T00:39:46;8.50;1.00
7290;DHT22;63176;52.678;13.250;2023-05-17T00:42:12;8.50;1.00
7290;DHT22;63176;52.678;13.250;2023-05-17T00:44:38;8.60;1.00
7290;DHT22;63176;52.678;13.250;2023-05-17T00:47:04;8.40;1.00
7290;DHT22;63176;52.678;13.250;2023-05-17T00:49:30;8.40;1.00
7290;DHT22;63176;52.678;13.250;2023-05-17T00:51:55;8.40;1.00
7290;DHT22;63176;52.678;13.250;2023-05-17T00:54:21;8.40;1.00
7290;DHT22;63176;52.678;13.250;2023-05-17T00:56:48;8.40;1.00
7290;DHT22;63176;52.678;13.250;2023-05-17T00:59:14;8.40;1.00
7290;DHT22;63176;52.678;13.250;2023-05-17T01:01:42;8.50;1.00
7290;DHT22;63176;52.678;13.250;2023-05-17T01:04:09;8.50;1.00
7290;DHT22;63176;52.678;13.250;2023-05-17T01:06:35;8.40;1.00
7290;DHT22;63176;52.678;13.250;2023-05-17T01:09:05;8.30;1.00
7290;DHT22;63176;52.678;13.250;2023-05-17T01:12:07;8.40;1.00
7290;DHT22;63176;52.678;13.250;2023-05-17T01:17:27;8.40;1.00
7290;DHT22;63176;52.678;13.250;2023-05-17T01:25:43;8.40;1.00
7290;DHT22;63176;52.678;13.250;2023-05-17T01:28:15;8.50;1.00
7290;DHT22;63176;52.678;13.250;2023-05-17T01:30:44;8.40;1.00
7290;DHT22;63176;52.678;13.250;2023-05-17T01:33:11;8.30;1.00
7290;DHT22;63176;52.678;13.250;2023-05-17T01:35:37;8.30;1.00
7290;DHT22;63176;52.678;13.250;2023-05-17T01:38:02;8.30;1.00
7290;DHT22;63176;52.678;13.250;2023-05-17T01:40:30;8.30;1.00
7290;DHT22;63176;52.678;13.250;2023-05-17T01:43:07;8.20;1.00
7290;DHT22;63176;52.678;13.250;2023-05-17T01:45:43;8.20;1.00
7290;DHT22;63176;52.678;13.250;2023-05-17T01:50:37;8.20;1.00
7290;DHT22;63176;52.678;13.250;2023-05-17T01:53:11;8.30;1.00
7290;DHT22;63176;52.678;13.250;2023-05-17T01:55:56;8.30;1.00
7290;DHT22;63176;52.678;13.250;2023-05-17T01:58:25;8.20;1.00
7290;DHT22;63176;52.678;13.250;2023-05-17T02:00:54;8.30;1.00
7290;DHT22;63176;52.678;13.250;2023-05-17T02:03:20;8.30;1.00
7290;DHT22;63176;52.678;13.250;2023-05-17T02:05:46;8.30;1.00
7290;DHT22;63176;52.678;13.250;2023-05-17T02:08:12;8.20;1.00
7290;DHT22;63176;52.678;13.250;2023-05-17T02:10:37;8.30;1.00
7290;DHT22;63176;52.678;13.250;2023-05-17T02:13:03;8.30;1.00
7290;DHT22;63176;52.678;13.250;2023-05-17T02:15:29;8.40;1.00
7290;DHT22;63176;52.678;13.250;2023-05-17T02:17:55;8.30;1.00
7290;DHT22;63176;52.678;13.250;2023-05-17T02:20:21;8.30;1.00
7290;DHT22;63176;52.678;13.250;2023-05-17T02:22:46;8.40;1.00
7290;DHT22;63176;52.678;13.250;2023-05-17T02:25:12;8.40;1.00
7290;DHT22;63176;52.678;13.250;2023-05-17T02:27:38;8.40;1.00
7290;DHT22;63176;52.678;13.250;2023-05-17T02:30:04;8.40;1.00
7290;DHT22;63176;52.678;13.250;2023-05-17T02:32:31;8.50;1.00
7290;DHT22;63176;52.678;13.250;2023-05-17T02:34:57;8.60;1.00
7290;DHT22;63176;52.678;13.250;2023-05-17T02:37:23;8.40;1.00
7290;DHT22;63176;52.678;13.250;2023-05-17T02:39:49;8.50;1.00
7290;DHT22;63176;52.678;13.250;2023-05-17T02:42:15;8.50;1.00
7290;DHT22;63176;52.678;13.250;2023-05-17T02:44:40;8.40;1.00
7290;DHT22;63176;52.678;13.250;2023-05-17T02:47:06;8.50;1.00
7290;DHT22;63176;52.678;13.250;2023-05-17T02:49:32;8.60;1.00
7290;DHT22;63176;52.678;13.250;2023-05-17T02:51:57;8.50;1.00
7290;DHT22;63176;52.678;13.250;2023-05-17T02:54:23;8.50;1.00
7290;DHT22;63176;52.678;13.250;2023-05-17T02:56:48;8.60;1.00
7290;DHT22;63176;52.678;13.250;2023-05-17T02:59:14;8.60;1.00
7290;DHT22;63176;52.678;13.250;2023-05-17T03:01:40;8.60;1.00
7290;DHT22;63176;52.678;13.250;2023-05-17T03:04:06;8.60;1.00
7290;DHT22;63176;52.678;13.250;2023-05-17T03:06:32;8.60;1.00
7290;DHT22;63176;52.678;13.250;2023-05-17T03:08:58;8.60;1.00
7290;DHT22;63176;52.678;13.250;2023-05-17T03:11:24;8.60;1.00
7290;DHT22;63176;52.678;13.250;2023-05-17T03:13:50;8.60;1.00
7290;DHT22;63176;52.678;13.250;2023-05-17T03:16:16;8.60;1.00
7290;DHT22;63176;52.678;13.250;2023-05-17T03:18:42;8.60;1.00
7290;DHT22;63176;52.678;13.250;2023-05-17T03:21:08;8.60;1.00
7290;DHT22;63176;52.678;13.250;2023-05-17T03:23:33;8.70;1.00
7290;DHT22;63176;52.678;13.250;2023-05-17T03:25:59;8.70;1.00
7290;DHT22;63176;52.678;13.250;2023-05-17T03:28:25;8.60;1.00
7290;DHT22;63176;52.678;13.250;2023-05-17T03:30:51;8.70;1.00
7290;DHT22;63176;52.678;13.250;2023-05-17T03:33:17;8.80;1.00
7290;DHT22;63176;52.678;13.250;2023-05-17T03:35:43;8.70;1.00
7290;DHT22;63176;52.678;13.250;2023-05-17T03:38:10;8.90;1.00
7290;DHT22;63176;52.678;13.250;2023-05-17T03:40:36;8.90;1.00
7290;DHT22;63176;52.678;13.250;2023-05-17T03:43:02;9.00;1.00
7290;DHT22;63176;52.678;13.250;2023-05-17T03:45:27;8.90;1.00
7290;DHT22;63176;52.678;13.250;2023-05-17T03:47:53;8.90;1.00
7290;DHT22;63176;52.678;13.250;2023-05-17T03:50:18;9.00;1.00
7290;DHT22;63176;52.678;13.250;2023-05-17T03:52:44;8.80;1.00
7290;DHT22;63176;52.678;13.250;2023-05-17T03:55:10;9.00;1.00
7290;DHT22;63176;52.678;13.250;2023-05-17T03:57:36;9.00;1.00
7290;DHT22;63176;52.678;13.250;2023-05-17T04:00:02;9.00;1.00
7290;DHT22;63176;52.678;13.250;2023-05-17T04:02:31;8.90;1.00
7290;DHT22;63176;52.678;13.250;2023-05-17T04:04:56;8.90;1.00
7290;DHT22;63176;52.678;13.250;2023-05-17T04:07:22;8.90;1.00
7290;DHT22;63176;52.678;13.250;2023-05-17T04:09:48;8.90;1.00
7290;DHT22;63176;52.678;13.250;2023-05-17T04:12:13;8.90;1.00
7290;DHT22;63176;52.678;13.250;2023-05-17T04:14:39;8.90;1.00
7290;DHT22;63176;52.678;13.250;2023-05-17T04:17:05;8.90;1.00
7290;DHT22;63176;52.678;13.250;2023-05-17T04:19:32;8.90;1.00
7290;DHT22;63176;52.678;13.250;2023-05-17T04:21:58;8.90;1.00
7290;DHT22;63176;52.678;13.250;2023-05-17T04:24:23;8.90;1.00
7290;DHT22;63176;52.678;13.250;2023-05-17T04:26:49;8.90;1.00
7290;DHT22;63176;52.678;13.250;2023-05-17T04:29:15;8.90;1.00
7290;DHT22;63176;52.678;13.250;2023-05-17T04:31:41;8.90;1.00
7290;DHT22;63176;52.678;13.250;2023-05-17T04:34:07;8.90;1.00
7290;DHT22;63176;52.678;13.250;2023-05-17T04:36:33;9.00;1.00
7290;DHT22;63176;52.678;13.250;2023-05-17T04:38:59;8.90;1.00
7290;DHT22;63176;52.678;13.250;2023-05-17T04:41:24;9.00;1.00
7290;DHT22;63176;52.678;13.250;2023-05-17T04:43:50;9.00;1.00
7290;DHT22;63176;52.678;13.250;2023-05-17T04:46:16;9.20;1.00
7290;DHT22;63176;52.678;13.250;2023-05-17T04:48:41;9.20;1.00
7290;DHT22;63176;52.678;13.250;2023-05-17T04:51:07;9.30;1.00
7290;DHT22;63176;52.678;13.250;2023-05-17T04:53:32;9.40;1.00
7290;DHT22;63176;52.678;13.250;2023-05-17T04:55:58;9.50;1.00
7290;DHT22;63176;52.678;13.250;2023-05-17T04:58:24;9.50;1.00
7290;DHT22;63176;52.678;13.250;2023-05-17T05:00:50;9.70;1.00
7290;DHT22;63176;52.678;13.250;2023-05-17T05:03:17;9.70;1.00
7290;DHT22;63176;52.678;13.250;2023-05-17T05:05:42;9.70;1.00
7290;DHT22;63176;52.678;13.250;2023-05-17T05:08:08;9.80;1.00
7290;DHT22;63176;52.678;13.250;2023-05-17T05:10:34;9.90;1.00
7290;DHT22;63176;52.678;13.250;2023-05-17T05:13:00;9.90;1.00
7290;DHT22;63176;52.678;13.250;2023-05-17T05:15:25;10.00;1.00
7290;DHT22;63176;52.678;13.250;2023-05-17T05:17:51;10.10;1.00
7290;DHT22;63176;52.678;13.250;2023-05-17T05:20:17;10.10;1.00
7290;DHT22;63176;52.678;13.250;2023-05-17T05:22:42;10.10;1.00
7290;DHT22;63176;52.678;13.250;2023-05-17T05:25:08;10.30;1.00
7290;DHT22;63176;52.678;13.250;2023-05-17T05:27:34;10.30;1.00
7290;DHT22;63176;52.678;13.250;2023-05-17T05:30:00;10.50;1.00
7290;DHT22;63176;52.678;13.250;2023-05-17T05:32:26;10.60;1.00
7290;DHT22;63176;52.678;13.250;2023-05-17T05:34:52;10.60;1.00
7290;DHT22;63176;52.678;13.250;2023-05-17T05:37:17;10.60;1.00
7290;DHT22;63176;52.678;13.250;2023-05-17T05:39:46;10.50;1.00
7290;DHT22;63176;52.678;13.250;2023-05-17T05:42:11;10.50;1.00
7290;DHT22;63176;52.678;13.250;2023-05-17T05:44:37;10.60;1.00
7290;DHT22;63176;52.678;13.250;2023-05-17T05:47:03;10.60;1.00
7290;DHT22;63176;52.678;13.250;2023-05-17T05:49:28;10.70;1.00
7290;DHT22;63176;52.678;13.250;2023-05-17T05:51:54;10.70;1.00
7290;DHT22;63176;52.678;13.250;2023-05-17T05:54:20;10.80;1.00
7290;DHT22;63176;52.678;13.250;2023-05-17T05:56:45;11.00;1.00
7290;DHT22;63176;52.678;13.250;2023-05-17T05:59:11;11.10;1.00
7290;DHT22;63176;52.678;13.250;2023-05-17T06:01:37;11.10;1.00
7290;DHT22;63176;52.678;13.250;2023-05-17T06:04:02;11.10;1.00
7290;DHT22;63176;52.678;13.250;2023-05-17T06:06:28;11.10;1.00
7290;DHT22;63176;52.678;13.250;2023-05-17T06:08:54;11.10;1.00
7290;DHT22;63176;52.678;13.250;2023-05-17T06:11:20;11.00;1.00
7290;DHT22;63176;52.678;13.250;2023-05-17T06:13:46;10.90;1.00
7290;DHT22;63176;52.678;13.250;2023-05-17T06:16:12;10.80;1.00
7290;DHT22;63176;52.678;13.250;2023-05-17T06:18:37;10.60;1.00
7290;DHT22;63176;52.678;13.250;2023-05-17T06:21:03;10.60;1.00
7290;DHT22;63176;52.678;13.250;2023-05-17T06:23:29;10.60;1.00
7290;DHT22;63176;52.678;13.250;2023-05-17T06:25:55;10.70;1.00
7290;DHT22;63176;52.678;13.250;2023-05-17T06:28:20;10.70;1.00
7290;DHT22;63176;52.678;13.250;2023-05-17T06:30:46;10.70;1.00
7290;DHT22;63176;52.678;13.250;2023-05-17T06:33:12;10.80;1.00
7290;DHT22;63176;52.678;13.250;2023-05-17T06:35:37;10.90;1.00
7290;DHT22;63176;52.678;13.250;2023-05-17T06:38:03;11.00;1.00
7290;DHT22;63176;52.678;13.250;2023-05-17T06:40:29;11.20;1.00
7290;DHT22;63176;52.678;13.250;2023-05-17T06:42:54;11.40;1.00
7290;DHT22;63176;52.678;13.250;2023-05-17T06:45:20;11.50;1.00
7290;DHT22;63176;52.678;13.250;2023-05-17T06:47:46;11.50;1.00
7290;DHT22;63176;52.678;13.250;2023-05-17T06:50:12;11.50;1.00
7290;DHT22;63176;52.678;13.250;2023-05-17T06:52:38;11.40;1.00
7290;DHT22;63176;52.678;13.250;2023-05-17T06:55:04;11.40;1.00
7290;DHT22;63176;52.678;13.250;2023-05-17T06:57:30;11.30;1.00
7290;DHT22;63176;52.678;13.250;2023-05-17T06:59:56;11.30;1.00
7290;DHT22;63176;52.678;13.250;2023-05-17T07:02:22;11.30;1.00
7290;DHT22;63176;52.678;13.250;2023-05-17T07:04:47;11.50;1.00
7290;DHT22;63176;52.678;13.250;2023-05-17T07:07:13;11.50;1.00
7290;DHT22;63176;52.678;13.250;2023-05-17T07:09:38;11.50;1.00
7290;DHT22;63176;52.678;13.250;2023-05-17T07:12:04;11.50;1.00
7290;DHT22;63176;52.678;13.250;2023-05-17T07:14:30;11.60;1.00
7290;DHT22;63176;52.678;13.250;2023-05-17T07:16:56;11.60;1.00
7290;DHT22;63176;52.678;13.250;2023-05-17T07:19:22;11.60;1.00
7290;DHT22;63176;52.678;13.250;2023-05-17T07:21:47;11.50;1.00
7290;DHT22;63176;52.678;13.250;2023-05-17T07:24:13;11.40;1.00
7290;DHT22;63176;52.678;13.250;2023-05-17T07:26:39;11.40;1.00
7290;DHT22;63176;52.678;13.250;2023-05-17T07:29:04;11.30;1.00
7290;DHT22;63176;52.678;13.250;2023-05-17T07:31:30;11.40;1.00
7290;DHT22;63176;52.678;13.250;2023-05-17T07:33:56;11.50;1.00
7290;DHT22;63176;52.678;13.250;2023-05-17T07:36:21;11.60;1.00
7290;DHT22;63176;52.678;13.250;2023-05-17T07:38:47;11.60;1.00
7290;DHT22;63176;52.678;13.250;2023-05-17T07:41:13;11.60;1.00
7290;DHT22;63176;52.678;13.250;2023-05-17T07:43:41;11.70;1.00
7290;DHT22;63176;52.678;13.250;2023-05-17T07:46:07;11.70;1.00
7290;DHT22;63176;52.678;13.250;2023-05-17T07:48:32;11.80;1.00
7290;DHT22;63176;52.678;13.250;2023-05-17T07:50:58;11.90;1.00
7290;DHT22;63176;52.678;13.250;2023-05-17T07:53:24;11.90;1.00
7290;DHT22;63176;52.678;13.250;2023-05-17T07:55:49;11.90;1.00
7290;DHT22;63176;52.678;13.250;2023-05-17T07:58:15;11.90;1.00
7290;DHT22;63176;52.678;13.250;2023-05-17T08:00:41;11.90;1.00
7290;DHT22;63176;52.678;13.250;2023-05-17T08:03:07;12.00;1.00
7290;DHT22;63176;52.678;13.250;2023-05-17T08:05:32;12.10;1.00
7290;DHT22;63176;52.678;13.250;2023-05-17T08:07:58;12.20;1.00
7290;DHT22;63176;52.678;13.250;2023-05-17T08:10:25;12.30;1.00
7290;DHT22;63176;52.678;13.250;2023-05-17T08:12:52;12.40;1.00
7290;DHT22;63176;52.678;13.250;2023-05-17T08:15:18;12.40;1.00
7290;DHT22;63176;52.678;13.250;2023-05-17T08:17:43;12.40;1.00
7290;DHT22;63176;52.678;13.250;2023-05-17T08:20:11;12.30;1.00
7290;DHT22;63176;52.678;13.250;2023-05-17T08:22:36;12.40;1.00
7290;DHT22;63176;52.678;13.250;2023-05-17T08:25:03;12.50;1.00
7290;DHT22;63176;52.678;13.250;2023-05-17T08:27:28;12.50;1.00
7290;DHT22;63176;52.678;13.250;2023-05-17T08:29:56;12.60;1.00
7290;DHT22;63176;52.678;13.250;2023-05-17T08:32:22;12.60;1.00
7290;DHT22;63176;52.678;13.250;2023-05-17T08:34:48;12.60;1.00
7290;DHT22;63176;52.678;13.250;2023-05-17T08:37:14;12.60;1.00
7290;DHT22;63176;52.678;13.250;2023-05-17T08:39:40;12.60;1.00
7290;DHT22;63176;52.678;13.250;2023-05-17T08:42:08;12.60;1.00
7290;DHT22;63176;52.678;13.250;2023-05-17T08:44:34;12.50;1.00
7290;DHT22;63176;52.678;13.250;2023-05-17T08:47:02;12.60;1.00
7290;DHT22;63176;52.678;13.250;2023-05-17T08:49:29;12.60;1.00
7290;DHT22;63176;52.678;13.250;2023-05-17T08:51:59;12.70;1.00
7290;DHT22;63176;52.678;13.250;2023-05-17T08:54:25;12.80;1.00
7290;DHT22;63176;52.678;13.250;2023-05-17T08:56:57;12.90;1.00
7290;DHT22;63176;52.678;13.250;2023-05-17T08:59:25;13.00;1.00
7290;DHT22;63176;52.678;13.250;2023-05-17T09:01:52;13.00;1.00
7290;DHT22;63176;52.678;13.250;2023-05-17T09:04:22;13.10;1.00
7290;DHT22;63176;52.678;13.250;2023-05-17T09:06:49;13.10;1.00
7290;DHT22;63176;52.678;13.250;2023-05-17T09:09:15;13.20;1.00
7290;DHT22;63176;52.678;13.250;2023-05-17T09:11:40;13.30;1.00
7290;DHT22;63176;52.678;13.250;2023-05-17T09:14:06;13.30;1.00
7290;DHT22;63176;52.678;13.250;2023-05-17T09:16:36;13.40;1.00
7290;DHT22;63176;52.678;13.250;2023-05-17T09:19:04;13.50;1.00
7290;DHT22;63176;52.678;13.250;2023-05-17T09:21:30;13.60;1.00
7290;DHT22;63176;52.678;13.250;2023-05-17T09:23:57;13.60;1.00
7290;DHT22;63176;52.678;13.250;2023-05-17T09:26:40;13.70;1.00
7290;DHT22;63176;52.678;13.250;2023-05-17T09:29:15;13.70;1.00
7290;DHT22;63176;52.678;13.250;2023-05-17T09:31:41;13.70;1.00
7290;DHT22;63176;52.678;13.250;2023-05-17T09:34:07;13.80;1.00
7290;DHT22;63176;52.678;13.250;2023-05-17T09:36:37;13.90;1.00
7290;DHT22;63176;52.678;13.250;2023-05-17T09:39:07;14.00;1.00
7290;DHT22;63176;52.678;13.250;2023-05-17T09:44:10;14.20;1.00
7290;DHT22;63176;52.678;13.250;2023-05-17T09:46:41;14.30;1.00
7290;DHT22;63176;52.678;13.250;2023-05-17T09:49:07;14.40;1.00
7290;DHT22;63176;52.678;13.250;2023-05-17T09:51:34;14.50;1.00
7290;DHT22;63176;52.678;13.250;2023-05-17T09:54:01;14.50;1.00
7290;DHT22;63176;52.678;13.250;2023-05-17T09:56:28;14.50;1.00
7290;DHT22;63176;52.678;13.250;2023-05-17T09:58:54;14.50;1.00
7290;DHT22;63176;52.678;13.250;2023-05-17T10:01:20;14.60;1.00
7290;DHT22;63176;52.678;13.250;2023-05-17T10:03:46;14.70;1.00
7290;DHT22;63176;52.678;13.250;2023-05-17T10:06:15;14.80;1.00
7290;DHT22;63176;52.678;13.250;2023-05-17T10:08:45;14.90;1.00
7290;DHT22;63176;52.678;13.250;2023-05-17T10:11:12;15.00;1.00
7290;DHT22;63176;52.678;13.250;2023-05-17T10:13:46;15.20;1.00
7290;DHT22;63176;52.678;13.250;2023-05-17T10:16:14;15.20;1.00
7290;DHT22;63176;52.678;13.250;2023-05-17T10:18:40;15.30;1.00
7290;DHT22;63176;52.678;13.250;2023-05-17T10:21:06;15.40;1.00
7290;DHT22;63176;52.678;13.250;2023-05-17T10:23:33;15.50;1.00
7290;DHT22;63176;52.678;13.250;2023-05-17T10:26:00;15.60;1.00
7290;DHT22;63176;52.678;13.250;2023-05-17T10:28:26;15.70;1.00
7290;DHT22;63176;52.678;13.250;2023-05-17T10:30:53;15.80;1.00
7290;DHT22;63176;52.678;13.250;2023-05-17T10:33:20;15.90;1.00
7290;DHT22;63176;52.678;13.250;2023-05-17T10:35:48;16.00;1.00
7290;DHT22;63176;52.678;13.250;2023-05-17T10:38:16;16.10;1.00
7290;DHT22;63176;52.678;13.250;2023-05-17T10:40:42;16.20;1.00
7290;DHT22;63176;52.678;13.250;2023-05-17T10:43:09;16.30;1.00
7290;DHT22;63176;52.678;13.250;2023-05-17T10:45:36;16.40;1.00
7290;DHT22;63176;52.678;13.250;2023-05-17T10:48:06;16.60;1.00
7290;DHT22;63176;52.678;13.250;2023-05-17T10:50:32;16.70;1.00
7290;DHT22;63176;52.678;13.250;2023-05-17T10:53:01;16.70;1.00
7290;DHT22;63176;52.678;13.250;2023-05-17T10:55:42;16.90;1.00
7290;DHT22;63176;52.678;13.250;2023-05-17T10:58:17;17.00;1.00
7290;DHT22;63176;52.678;13.250;2023-05-17T11:00:48;17.00;1.00
7290;DHT22;63176;52.678;13.250;2023-05-17T11:03:17;17.10;1.00
7290;DHT22;63176;52.678;13.250;2023-05-17T11:05:44;17.30;1.00
7290;DHT22;63176;52.678;13.250;2023-05-17T11:08:30;17.40;1.00
7290;DHT22;63176;52.678;13.250;2023-05-17T11:11:17;17.50;1.00
7290;DHT22;63176;52.678;13.250;2023-05-17T11:13:45;17.60;1.00
7290;DHT22;63176;52.678;13.250;2023-05-17T11:16:14;17.70;1.00
7290;DHT22;63176;52.678;13.250;2023-05-17T11:18:52;17.80;1.00
7290;DHT22;63176;52.678;13.250;2023-05-17T11:21:21;17.80;1.00
7290;DHT22;63176;52.678;13.250;2023-05-17T11:23:49;17.90;1.00
7290;DHT22;63176;52.678;13.250;2023-05-17T11:26:26;18.00;1.00
7290;DHT22;63176;52.678;13.250;2023-05-17T11:29:11;18.10;1.00
7290;DHT22;63176;52.678;13.250;2023-05-17T11:31:42;18.10;1.00
7290;DHT22;63176;52.678;13.250;2023-05-17T11:34:08;18.10;1.00
7290;DHT22;63176;52.678;13.250;2023-05-17T11:36:49;18.20;1.00
7290;DHT22;63176;52.678;13.250;2023-05-17T11:39:22;18.40;1.00
7290;DHT22;63176;52.678;13.250;2023-05-17T11:41:54;18.50;1.00
7290;DHT22;63176;52.678;13.250;2023-05-17T11:44:28;18.60;1.00
7290;DHT22;63176;52.678;13.250;2023-05-17T11:47:01;18.60;1.00
7290;DHT22;63176;52.678;13.250;2023-05-17T11:49:30;18.60;1.00
7290;DHT22;63176;52.678;13.250;2023-05-17T11:51:57;18.50;1.00
7290;DHT22;63176;52.678;13.250;2023-05-17T11:54:24;18.50;1.00
7290;DHT22;63176;52.678;13.250;2023-05-17T11:56:52;18.60;1.00
7290;DHT22;63176;52.678;13.250;2023-05-17T11:59:19;18.60;1.00
7290;DHT22;63176;52.678;13.250;2023-05-17T12:01:45;18.70;1.00
7290;DHT22;63176;52.678;13.250;2023-05-17T12:04:11;18.80;1.00
7290;DHT22;63176;52.678;13.250;2023-05-17T12:06:36;18.80;1.00
7290;DHT22;63176;52.678;13.250;2023-05-17T12:09:03;18.90;1.00
7290;DHT22;63176;52.678;13.250;2023-05-17T12:11:30;18.80;1.00
7290;DHT22;63176;52.678;13.250;2023-05-17T12:13:56;18.80;1.00
7290;DHT22;63176;52.678;13.250;2023-05-17T12:16:22;18.80;1.00
7290;DHT22;63176;52.678;13.250;2023-05-17T12:18:50;18.80;1.00
7290;DHT22;63176;52.678;13.250;2023-05-17T12:21:16;18.90;1.00
7290;DHT22;63176;52.678;13.250;2023-05-17T12:23:44;19.10;1.00
7290;DHT22;63176;52.678;13.250;2023-05-17T12:26:17;19.20;1.00
7290;DHT22;63176;52.678;13.250;2023-05-17T12:28:51;19.30;1.00
7290;DHT22;63176;52.678;13.250;2023-05-17T12:31:40;19.40;1.00
7290;DHT22;63176;52.678;13.250;2023-05-17T12:34:05;19.30;1.00
7290;DHT22;63176;52.678;13.250;2023-05-17T12:36:32;19.30;1.00
7290;DHT22;63176;52.678;13.250;2023-05-17T12:38:58;19.40;1.00
7290;DHT22;63176;52.678;13.250;2023-05-17T12:41:26;19.20;1.00
7290;DHT22;63176;52.678;13.250;2023-05-17T12:43:52;19.30;1.00
7290;DHT22;63176;52.678;13.250;2023-05-17T12:46:20;19.40;1.00
7290;DHT22;63176;52.678;13.250;2023-05-17T12:48:48;19.50;1.00
7290;DHT22;63176;52.678;13.250;2023-05-17T12:51:18;19.60;1.00
7290;DHT22;63176;52.678;13.250;2023-05-17T12:53:53;19.70;1.00
7290;DHT22;63176;52.678;13.250;2023-05-17T12:56:28;19.80;1.00
7290;DHT22;63176;52.678;13.250;2023-05-17T13:04:07;19.90;1.00
7290;DHT22;63176;52.678;13.250;2023-05-17T13:06:55;20.00;1.00
7290;DHT22;63176;52.678;13.250;2023-05-17T13:09:26;19.90;1.00
7290;DHT22;63176;52.678;13.250;2023-05-17T13:11:59;19.80;1.00
7290;DHT22;63176;52.678;13.250;2023-05-17T13:17:04;19.80;1.00
7290;DHT22;63176;52.678;13.250;2023-05-17T13:19:30;19.80;1.00
7290;DHT22;63176;52.678;13.250;2023-05-17T13:21:56;19.80;1.00
7290;DHT22;63176;52.678;13.250;2023-05-17T13:24:22;19.90;1.00
7290;DHT22;63176;52.678;13.250;2023-05-17T13:26:47;19.80;1.00
7290;DHT22;63176;52.678;13.250;2023-05-17T13:29:13;19.90;1.00
7290;DHT22;63176;52.678;13.250;2023-05-17T13:31:39;19.80;1.00
7290;DHT22;63176;52.678;13.250;2023-05-17T13:34:06;19.80;1.00
7290;DHT22;63176;52.678;13.250;2023-05-17T13:36:32;19.90;1.00
7290;DHT22;63176;52.678;13.250;2023-05-17T13:38:58;19.90;1.00
7290;DHT22;63176;52.678;13.250;2023-05-17T13:41:26;19.90;1.00
7290;DHT22;63176;52.678;13.250;2023-05-17T13:43:52;20.10;1.00
7290;DHT22;63176;52.678;13.250;2023-05-17T13:46:17;20.20;1.00
7290;DHT22;63176;52.678;13.250;2023-05-17T13:48:43;20.20;1.00
7290;DHT22;63176;52.678;13.250;2023-05-17T13:51:09;20.20;1.00
7290;DHT22;63176;52.678;13.250;2023-05-17T13:53:34;20.20;1.00
7290;DHT22;63176;52.678;13.250;2023-05-17T13:56:02;20.20;1.00
7290;DHT22;63176;52.678;13.250;2023-05-17T13:58:28;20.10;1.00
7290;DHT22;63176;52.678;13.250;2023-05-17T14:00:54;19.90;1.00
7290;DHT22;63176;52.678;13.250;2023-05-17T14:03:20;19.80;1.00
7290;DHT22;63176;52.678;13.250;2023-05-17T14:05:46;19.70;1.00
7290;DHT22;63176;52.678;13.250;2023-05-17T14:08:15;19.60;1.00
7290;DHT22;63176;52.678;13.250;2023-05-17T14:10:41;19.70;1.00
7290;DHT22;63176;52.678;13.250;2023-05-17T14:13:07;20.00;1.00
7290;DHT22;63176;52.678;13.250;2023-05-17T14:15:33;20.20;1.00
7290;DHT22;63176;52.678;13.250;2023-05-17T14:18:03;20.30;1.00
7290;DHT22;63176;52.678;13.250;2023-05-17T14:20:29;20.10;1.00
7290;DHT22;63176;52.678;13.250;2023-05-17T14:22:55;19.80;1.00
7290;DHT22;63176;52.678;13.250;2023-05-17T14:25:21;19.60;1.00
7290;DHT22;63176;52.678;13.250;2023-05-17T14:27:46;19.30;1.00
7290;DHT22;63176;52.678;13.250;2023-05-17T14:30:13;19.00;1.00
7290;DHT22;63176;52.678;13.250;2023-05-17T14:32:39;19.00;1.00
7290;DHT22;63176;52.678;13.250;2023-05-17T14:35:06;19.30;1.00
7290;DHT22;63176;52.678;13.250;2023-05-17T14:37:32;19.70;1.00
7290;DHT22;63176;52.678;13.250;2023-05-17T14:39:57;20.10;1.00
7290;DHT22;63176;52.678;13.250;2023-05-17T14:42:25;20.20;1.00
7290;DHT22;63176;52.678;13.250;2023-05-17T14:44:51;20.30;1.00
7290;DHT22;63176;52.678;13.250;2023-05-17T14:47:17;20.20;1.00
7290;DHT22;63176;52.678;13.250;2023-05-17T14:49:42;20.00;1.00
7290;DHT22;63176;52.678;13.250;2023-05-17T14:52:08;20.10;1.00
7290;DHT22;63176;52.678;13.250;2023-05-17T14:54:35;20.40;1.00
7290;DHT22;63176;52.678;13.250;2023-05-17T14:57:01;21.00;1.00
7290;DHT22;63176;52.678;13.250;2023-05-17T14:59:26;21.70;1.00
7290;DHT22;63176;52.678;13.250;2023-05-17T15:01:52;22.10;1.00
7290;DHT22;63176;52.678;13.250;2023-05-17T15:04:18;22.80;1.00
7290;DHT22;63176;52.678;13.250;2023-05-17T15:06:44;23.00;1.00
7290;DHT22;63176;52.678;13.250;2023-05-17T15:09:10;23.70;1.00
7290;DHT22;63176;52.678;13.250;2023-05-17T15:11:38;24.50;1.00
7290;DHT22;63176;52.678;13.250;2023-05-17T15:14:05;24.90;1.00
7290;DHT22;63176;52.678;13.250;2023-05-17T15:16:33;25.40;1.00
7290;DHT22;63176;52.678;13.250;2023-05-17T15:18:59;25.50;1.00
7290;DHT22;63176;52.678;13.250;2023-05-17T15:21:25;25.70;1.00
7290;DHT22;63176;52.678;13.250;2023-05-17T15:23:51;26.00;1.00
7290;DHT22;63176;52.678;13.250;2023-05-17T15:26:16;26.30;1.00
7290;DHT22;63176;52.678;13.250;2023-05-17T15:28:42;26.40;1.00
7290;DHT22;63176;52.678;13.250;2023-05-17T15:31:08;25.90;1.00
7290;DHT22;63176;52.678;13.250;2023-05-17T15:33:37;25.30;1.00
7290;DHT22;63176;52.678;13.250;2023-05-17T15:36:10;24.50;1.00
7290;DHT22;63176;52.678;13.250;2023-05-17T15:38:36;23.50;1.00
7290;DHT22;63176;52.678;13.250;2023-05-17T15:41:04;22.50;1.00
7290;DHT22;63176;52.678;13.250;2023-05-17T15:43:31;21.80;1.00
7290;DHT22;63176;52.678;13.250;2023-05-17T15:45:57;21.40;1.00
7290;DHT22;63176;52.678;13.250;2023-05-17T15:48:23;21.10;1.00
7290;DHT22;63176;52.678;13.250;2023-05-17T15:50:50;20.80;1.00
7290;DHT22;63176;52.678;13.250;2023-05-17T15:53:16;20.60;1.00
7290;DHT22;63176;52.678;13.250;2023-05-17T15:55:42;20.20;1.00
7290;DHT22;63176;52.678;13.250;2023-05-17T15:58:08;19.90;1.00
7290;DHT22;63176;52.678;13.250;2023-05-17T16:00:35;19.70;1.00
7290;DHT22;63176;52.678;13.250;2023-05-17T16:03:02;19.50;1.00
7290;DHT22;63176;52.678;13.250;2023-05-17T16:05:28;19.30;1.00
7290;DHT22;63176;52.678;13.250;2023-05-17T16:07:58;19.20;1.00
7290;DHT22;63176;52.678;13.250;2023-05-17T16:10:24;19.10;1.00